Time;durP1;ratioP1;P1;durP2;ratioP2;P2;SDS_P1;SDS_P2;PMS_P1;PMS_P2;Temp;Humidity;BMP_temperature;BMP_pressure;BME280_temperature;BME280_humidity;BME280_pressure;Samples;Min_cycle;Max_cycle;Signal;HPM_P1;HPM_P2
2023/02/27 00:01:29;;;;;;;9.05;8.45;;;;;;;;;;4997890;28;20053;-53
2023/02/27 00:03:55;;;;;;;8.55;8.05;;;;;;;;;;4989912;28;20041;-55
2023/02/27 00:06:20;;;;;;;9.20;8.60;;;;;;;;;;4993607;28;20030;-55
2023/02/27 00:08:45;;;;;;;8.88;8.23;;;;;;;;;;4992044;28;20372;-55
2023/02/27 00:11:11;;;;;;;8.35;7.75;;;;;;;;;;4994047;28;20042;-55
2023/02/27 00:13:36;;;;;;;9.00;8.40;;;;;;;;;;4992120;28;20072;-55
2023/02/27 00:16:01;;;;;;;8.20;7.70;;;;;;;;;;4996163;28;20034;-55
2023/02/27 00:18:27;;;;;;;9.10;8.50;;;;;;;;;;4993982;28;20049;-55
2023/02/27 00:20:53;;;;;;;9.00;8.35;;;;;;;;;;4994983;28;20329;-53
2023/02/27 00:23:18;;;;;;;9.15;8.55;;;;;;;;;;4992748;28;20056;-54
2023/02/27 00:25:44;;;;;;;8.15;7.65;;;;;;;;;;4992339;28;20095;-53
2023/02/27 00:28:09;;;;;;;9.98;9.27;;;;;;;;;;4996267;28;20145;-54
2023/02/27 00:30:34;;;;;;;8.43;7.93;;;;;;;;;;4996671;28;20110;-55
2023/02/27 00:33:00;;;;;;;9.15;8.55;;;;;;;;;;4994804;28;20076;-54
2023/02/27 00:35:25;;;;;;;9.43;8.82;;;;;;;;;;4992289;28;20026;-55
2023/02/27 00:37:50;;;;;;;8.68;8.07;;;;;;;;;;4997064;28;20097;-55
2023/02/27 00:40:16;;;;;;;9.18;8.57;;;;;;;;;;4994390;28;20034;-53
2023/02/27 00:42:42;;;;;;;9.50;8.90;;;;;;;;;;4993535;28;20050;-54
2023/02/27 00:45:07;;;;;;;9.43;8.82;;;;;;;;;;4995755;28;20435;-54
2023/02/27 00:47:34;;;;;;;10.20;9.25;;;;;;;;;;4993020;28;20092;-54
2023/02/27 00:50:00;;;;;;;9.50;8.90;;;;;;;;;;4993834;28;20076;-55
2023/02/27 00:52:26;;;;;;;9.45;8.65;;;;;;;;;;4992727;28;20094;-55
2023/02/27 00:54:51;;;;;;;8.48;7.97;;;;;;;;;;4994130;28;20038;-54
2023/02/27 00:57:17;;;;;;;8.55;8.05;;;;;;;;;;4994185;28;20045;-53
2023/02/27 00:59:42;;;;;;;8.90;8.30;;;;;;;;;;4994081;28;20841;-53
2023/02/27 01:02:08;;;;;;;8.45;7.93;;;;;;;;;;4994795;28;20130;-53
2023/02/27 01:04:33;;;;;;;9.23;8.63;;;;;;;;;;4994580;28;20046;-54
2023/02/27 01:06:59;;;;;;;9.07;8.48;;;;;;;;;;4993193;28;20121;-55
2023/02/27 01:09:24;;;;;;;8.57;8.02;;;;;;;;;;4994324;28;20088;-54
2023/02/27 01:11:50;;;;;;;9.80;9.15;;;;;;;;;;4997265;28;20030;-54
2023/02/27 01:14:16;;;;;;;8.95;8.35;;;;;;;;;;4994121;28;20041;-53
2023/02/27 01:16:41;;;;;;;8.50;8.00;;;;;;;;;;4992049;28;20037;-53
2023/02/27 01:19:07;;;;;;;9.43;8.82;;;;;;;;;;4992993;28;20454;-54
2023/02/27 01:21:32;;;;;;;8.32;7.82;;;;;;;;;;4992498;28;20789;-54
2023/02/27 01:23:57;;;;;;;9.18;8.57;;;;;;;;;;4992013;28;20061;-54
2023/02/27 01:26:23;;;;;;;8.35;7.85;;;;;;;;;;4993398;28;20065;-51
2023/02/27 01:28:48;;;;;;;9.45;8.85;;;;;;;;;;4995526;28;20034;-49
2023/02/27 01:31:14;;;;;;;9.30;8.68;;;;;;;;;;4994172;28;20041;-48
2023/02/27 01:33:39;;;;;;;8.93;8.23;;;;;;;;;;4992554;28;20042;-52
2023/02/27 01:36:05;;;;;;;9.00;8.40;;;;;;;;;;4994816;28;20122;-51
2023/02/27 01:38:30;;;;;;;9.18;8.57;;;;;;;;;;4993428;28;20417;-51
2023/02/27 01:40:56;;;;;;;9.35;8.75;;;;;;;;;;4998338;28;20718;-51
2023/02/27 01:43:21;;;;;;;8.60;8.10;;;;;;;;;;4995517;28;20519;-49
2023/02/27 01:45:48;;;;;;;9.00;8.40;;;;;;;;;;4995341;28;20035;-51
2023/02/27 01:48:34;;;;;;;9.55;8.95;;;;;;;;;;4998871;28;20435;-50
2023/02/27 01:51:07;;;;;;;9.55;8.95;;;;;;;;;;4996328;28;20121;-52
2023/02/27 01:53:35;;;;;;;9.90;9.30;;;;;;;;;;4996664;28;20131;-52
2023/02/27 01:56:13;;;;;;;8.93;8.32;;;;;;;;;;4992822;28;20479;-51
2023/02/27 01:58:39;;;;;;;9.80;9.20;;;;;;;;;;5000068;28;20042;-51
2023/02/27 02:01:05;;;;;;;9.35;8.75;;;;;;;;;;4997242;28;20042;-53
2023/02/27 02:03:59;;;;;;;9.82;9.23;;;;;;;;;;5004132;28;20537;-53
2023/02/27 02:06:26;;;;;;;10.30;9.57;;;;;;;;;;4997483;28;20049;-51
2023/02/27 02:08:55;;;;;;;9.55;8.95;;;;;;;;;;4997427;28;20053;-49
2023/02/27 02:11:22;;;;;;;10.13;9.48;;;;;;;;;;5003371;28;20098;-51
2023/02/27 02:13:54;;;;;;;9.00;8.40;;;;;;;;;;4997183;28;20052;-49
2023/02/27 02:16:43;;;;;;;8.85;8.27;;;;;;;;;;4998193;28;20042;-49
2023/02/27 02:19:46;;;;;;;10.10;9.50;;;;;;;;;;5012243;28;20030;-52
2023/02/27 02:22:17;;;;;;;9.88;9.27;;;;;;;;;;4995849;28;20038;-53
2023/02/27 02:25:16;;;;;;;9.95;9.35;;;;;;;;;;4994991;28;20038;-50
2023/02/27 02:28:05;;;;;;;9.90;9.30;;;;;;;;;;4997607;28;20038;-51
2023/02/27 02:30:57;;;;;;;9.68;9.02;;;;;;;;;;4996593;28;20052;-50
2023/02/27 02:33:34;;;;;;;9.73;9.13;;;;;;;;;;5003803;28;20034;-50
2023/02/27 02:36:33;;;;;;;9.38;8.77;;;;;;;;;;4999146;28;20097;-50
2023/02/27 02:39:33;;;;;;;8.93;8.32;;;;;;;;;;5010815;28;20041;-54
2023/02/27 02:42:08;;;;;;;9.38;8.77;;;;;;;;;;4976048;28;20083;-51
2023/02/27 02:44:53;;;;;;;9.57;8.98;;;;;;;;;;4994395;28;20169;-53
2023/02/27 02:47:56;;;;;;;9.10;8.50;;;;;;;;;;4993562;28;20038;-49
2023/02/27 02:50:29;;;;;;;9.32;8.73;;;;;;;;;;4993920;28;20048;-52
2023/02/27 02:53:25;;;;;;;11.07;10.35;;;;;;;;;;4993750;28;20049;-51
2023/02/27 02:56:00;;;;;;;9.27;8.68;;;;;;;;;;4995169;28;20038;-49
2023/02/27 02:58:34;;;;;;;9.00;8.40;;;;;;;;;;4991579;28;20621;-51
2023/02/27 03:01:17;;;;;;;9.88;9.27;;;;;;;;;;4996882;28;20033;-53
2023/02/27 03:03:48;;;;;;;8.95;8.35;;;;;;;;;;4995101;28;20044;-52
2023/02/27 03:06:23;;;;;;;9.95;9.35;;;;;;;;;;4994339;28;20040;-53
2023/02/27 03:08:54;;;;;;;9.20;8.60;;;;;;;;;;5001054;28;20042;-53
2023/02/27 03:11:23;;;;;;;10.27;9.68;;;;;;;;;;5011761;28;20034;-51
2023/02/27 03:13:57;;;;;;;9.32;8.73;;;;;;;;;;4993971;28;20096;-50
2023/02/27 03:16:32;;;;;;;8.80;8.20;;;;;;;;;;4996661;28;20117;-51
2023/02/27 03:19:09;;;;;;;9.38;8.77;;;;;;;;;;4995771;28;20046;-49
2023/02/27 03:21:59;;;;;;;9.43;8.82;;;;;;;;;;4995887;28;20029;-50
2023/02/27 03:24:30;;;;;;;10.00;9.27;;;;;;;;;;4997174;28;20510;-51
2023/02/27 03:27:01;;;;;;;9.73;9.13;;;;;;;;;;4996181;28;20045;-52
2023/02/27 03:29:36;;;;;;;9.65;9.05;;;;;;;;;;4996253;28;20038;-53
2023/02/27 03:32:09;;;;;;;10.40;9.70;;;;;;;;;;4996653;28;20098;-50
2023/02/27 03:34:38;;;;;;;9.65;9.05;;;;;;;;;;4994295;28;20038;-48
2023/02/27 03:37:19;;;;;;;10.20;9.60;;;;;;;;;;4993774;28;20040;-53
2023/02/27 03:40:03;;;;;;;9.75;9.15;;;;;;;;;;4995792;28;20129;-56
2023/02/27 03:42:38;;;;;;;9.45;8.85;;;;;;;;;;4995733;28;20049;-54
2023/02/27 03:45:38;;;;;;;9.35;8.75;;;;;;;;;;4995976;28;20407;-55
2023/02/27 03:48:06;;;;;;;8.98;8.38;;;;;;;;;;4995577;28;20030;-56
2023/02/27 03:50:33;;;;;;;9.20;8.60;;;;;;;;;;4995104;28;20152;-55
2023/02/27 03:52:59;;;;;;;10.15;9.55;;;;;;;;;;5000492;28;20030;-52
2023/02/27 03:55:32;;;;;;;9.55;8.95;;;;;;;;;;4994822;28;20041;-53
2023/02/27 03:57:57;;;;;;;10.18;9.57;;;;;;;;;;4991660;28;21123;-55
2023/02/27 04:00:24;;;;;;;9.43;8.82;;;;;;;;;;4997857;28;20034;-54
2023/02/27 04:02:52;;;;;;;9.88;9.27;;;;;;;;;;4993766;28;20041;-53
2023/02/27 04:05:18;;;;;;;9.60;9.00;;;;;;;;;;4993227;28;20034;-51
2023/02/27 04:07:56;;;;;;;9.38;8.77;;;;;;;;;;4997290;28;20026;-54
2023/02/27 04:10:53;;;;;;;8.90;8.30;;;;;;;;;;4995565;28;20037;-53
2023/02/27 04:13:40;;;;;;;9.07;8.48;;;;;;;;;;4996473;28;20044;-52
2023/02/27 04:16:44;;;;;;;9.60;8.77;;;;;;;;;;4995374;28;20034;-53
2023/02/27 04:19:47;;;;;;;9.68;9.07;;;;;;;;;;4993844;28;20598;-54
2023/02/27 04:22:24;;;;;;;9.38;8.77;;;;;;;;;;4997550;28;20045;-54
2023/02/27 04:24:57;;;;;;;9.32;8.73;;;;;;;;;;4992884;28;20037;-53
2023/02/27 04:27:49;;;;;;;9.70;9.10;;;;;;;;;;4995359;28;20026;-54
2023/02/27 04:30:24;;;;;;;9.30;8.70;;;;;;;;;;4993575;28;20467;-54
2023/02/27 04:33:23;;;;;;;10.70;10.00;;;;;;;;;;4994620;28;20562;-54
2023/02/27 04:35:53;;;;;;;9.80;9.20;;;;;;;;;;4990580;28;20030;-54
2023/02/27 04:38:33;;;;;;;9.27;8.68;;;;;;;;;;4997437;28;20095;-53
2023/02/27 04:41:14;;;;;;;10.55;9.85;;;;;;;;;;4994471;28;20053;-54
2023/02/27 04:43:41;;;;;;;26.52;8.63;;;;;;;;;;4995475;28;20041;-53
2023/02/27 04:46:11;;;;;;;9.90;9.30;;;;;;;;;;4992413;28;20096;-53
2023/02/27 04:48:44;;;;;;;8.50;8.00;;;;;;;;;;4994753;28;20034;-54
2023/02/27 04:51:14;;;;;;;8.73;8.18;;;;;;;;;;4991608;28;20027;-54
2023/02/27 04:53:57;;;;;;;9.17;8.57;;;;;;;;;;5002425;28;20026;-53
2023/02/27 04:56:28;;;;;;;10.65;9.95;;;;;;;;;;5008574;28;20034;-54
2023/02/27 04:58:59;;;;;;;8.63;8.10;;;;;;;;;;4993783;28;20042;-53
2023/02/27 05:01:36;;;;;;;9.40;8.80;;;;;;;;;;4994482;28;20072;-55
2023/02/27 05:04:04;;;;;;;8.90;8.30;;;;;;;;;;5001495;28;20045;-51
2023/02/27 05:06:34;;;;;;;8.88;8.15;;;;;;;;;;4993727;28;20699;-53
2023/02/27 05:09:27;;;;;;;8.50;8.00;;;;;;;;;;4993845;28;20421;-53
2023/02/27 05:12:15;;;;;;;9.23;8.63;;;;;;;;;;4994698;28;20042;-53
2023/02/27 05:14:57;;;;;;;9.85;9.25;;;;;;;;;;4993738;28;20467;-52
2023/02/27 05:17:34;;;;;;;8.85;8.25;;;;;;;;;;4994417;28;20478;-52
2023/02/27 05:20:00;;;;;;;9.23;8.63;;;;;;;;;;4993206;28;20136;-53
2023/02/27 05:22:41;;;;;;;8.93;8.32;;;;;;;;;;4999037;28;20069;-50
2023/02/27 05:25:24;;;;;;;8.60;8.10;;;;;;;;;;4998590;28;20038;-53
2023/02/27 05:27:58;;;;;;;9.38;8.77;;;;;;;;;;4997319;28;20026;-53
2023/02/27 05:30:39;;;;;;;8.90;8.30;;;;;;;;;;4995868;28;20062;-52
2023/02/27 05:33:14;;;;;;;9.77;9.18;;;;;;;;;;4996721;28;20104;-52
2023/02/27 05:35:53;;;;;;;8.10;7.60;;;;;;;;;;5000489;28;20038;-54
2023/02/27 05:38:24;;;;;;;9.18;8.57;;;;;;;;;;4997152;28;20034;-53
2023/02/27 05:40:54;;;;;;;9.68;9.07;;;;;;;;;;4996761;28;20124;-52
2023/02/27 05:43:24;;;;;;;9.55;8.85;;;;;;;;;;4997739;28;20038;-53
2023/02/27 05:45:54;;;;;;;9.05;8.45;;;;;;;;;;4994384;28;20038;-52
2023/02/27 05:48:26;;;;;;;9.63;8.75;;;;;;;;;;4998569;28;20034;-52
2023/02/27 05:50:53;;;;;;;8.70;8.10;;;;;;;;;;4997637;28;20069;-55
2023/02/27 05:53:22;;;;;;;7.82;7.32;;;;;;;;;;4995644;28;20188;-54
2023/02/27 05:55:58;;;;;;;8.90;8.30;;;;;;;;;;4994314;28;20042;-55
2023/02/27 05:58:29;;;;;;;8.20;7.70;;;;;;;;;;4995753;28;20038;-55
2023/02/27 06:01:01;;;;;;;9.00;8.40;;;;;;;;;;4997124;28;20041;-59
2023/02/27 06:03:27;;;;;;;8.50;8.00;;;;;;;;;;4997206;28;20074;-54
2023/02/27 06:05:55;;;;;;;8.70;8.10;;;;;;;;;;4994637;28;20128;-54
2023/02/27 06:08:22;;;;;;;8.85;8.25;;;;;;;;;;4997290;28;20053;-54
2023/02/27 06:10:50;;;;;;;8.10;7.60;;;;;;;;;;4996992;28;20107;-55
2023/02/27 06:13:16;;;;;;;8.18;7.68;;;;;;;;;;4995957;28;20042;-54
2023/02/27 06:15:45;;;;;;;8.25;7.75;;;;;;;;;;4995272;28;20061;-53
2023/02/27 06:18:11;;;;;;;9.02;8.43;;;;;;;;;;4996428;28;20487;-54
2023/02/27 06:20:38;;;;;;;8.65;8.13;;;;;;;;;;4993840;28;20030;-54
2023/02/27 06:23:03;;;;;;;9.75;9.15;;;;;;;;;;4995677;28;20038;-55
2023/02/27 06:25:29;;;;;;;8.82;8.15;;;;;;;;;;4996706;28;20050;-50
2023/02/27 06:27:54;;;;;;;8.75;8.15;;;;;;;;;;4997614;28;20491;-54
2023/02/27 06:30:20;;;;;;;9.10;8.50;;;;;;;;;;4999169;28;20025;-51
2023/02/27 06:32:45;;;;;;;8.93;8.32;;;;;;;;;;4994760;28;20812;-54
2023/02/27 06:35:11;;;;;;;8.27;7.78;;;;;;;;;;4995389;28;20037;-57
2023/02/27 06:37:36;;;;;;;9.52;8.93;;;;;;;;;;4994915;28;20037;-52
2023/02/27 06:40:04;;;;;;;8.32;7.82;;;;;;;;;;4994483;28;20464;-53
2023/02/27 06:42:30;;;;;;;8.82;8.23;;;;;;;;;;4996078;28;20042;-50
2023/02/27 06:44:56;;;;;;;8.63;8.10;;;;;;;;;;4995807;28;20122;-51
2023/02/27 06:47:21;;;;;;;9.00;8.30;;;;;;;;;;4995330;28;20511;-55
2023/02/27 06:49:46;;;;;;;7.85;7.35;;;;;;;;;;4995146;28;20045;-55
2023/02/27 06:52:12;;;;;;;8.60;8.10;;;;;;;;;;4992743;28;20045;-54
2023/02/27 06:54:37;;;;;;;9.05;8.45;;;;;;;;;;4995364;28;20095;-54
2023/02/27 06:57:02;;;;;;;8.15;7.65;;;;;;;;;;4995969;28;20065;-54
2023/02/27 06:59:28;;;;;;;9.20;8.60;;;;;;;;;;4996286;28;20578;-54
2023/02/27 07:01:53;;;;;;;9.20;8.60;;;;;;;;;;4995872;28;20046;-54
2023/02/27 07:04:19;;;;;;;9.90;9.30;;;;;;;;;;4997598;28;20045;-50
2023/02/27 07:06:44;;;;;;;20.63;10.75;;;;;;;;;;4995713;28;20057;-48
2023/02/27 07:09:10;;;;;;;9.90;9.20;;;;;;;;;;4995977;28;20109;-51
2023/02/27 07:11:35;;;;;;;8.98;8.38;;;;;;;;;;4995881;28;20030;-52
2023/02/27 07:14:00;;;;;;;9.68;8.98;;;;;;;;;;4992863;28;20054;-52
2023/02/27 07:16:26;;;;;;;8.93;8.32;;;;;;;;;;4992231;28;20781;-51
2023/02/27 07:18:51;;;;;;;8.88;8.27;;;;;;;;;;4995330;28;20049;-49
2023/02/27 07:21:16;;;;;;;9.25;8.63;;;;;;;;;;4993573;28;20049;-49
2023/02/27 07:23:42;;;;;;;10.18;9.48;;;;;;;;;;4995134;28;20045;-49
2023/02/27 07:26:08;;;;;;;8.27;7.78;;;;;;;;;;4992191;28;20073;-49
2023/02/27 07:28:33;;;;;;;8.45;7.95;;;;;;;;;;4996217;28;20068;-47
2023/02/27 07:30:59;;;;;;;8.30;7.80;;;;;;;;;;4994440;28;20112;-49
2023/02/27 07:33:24;;;;;;;8.40;7.90;;;;;;;;;;4994817;28;20038;-52
2023/02/27 07:35:50;;;;;;;8.70;8.18;;;;;;;;;;4992094;28;20080;-46
2023/02/27 07:38:17;;;;;;;8.15;7.65;;;;;;;;;;4990387;28;20030;-50
2023/02/27 07:40:44;;;;;;;8.88;8.27;;;;;;;;;;4993720;28;20064;-51
2023/02/27 07:43:09;;;;;;;8.23;7.72;;;;;;;;;;4992287;28;20034;-51
2023/02/27 07:45:35;;;;;;;8.40;7.90;;;;;;;;;;4991575;28;20034;-51
2023/02/27 07:48:00;;;;;;;9.43;8.82;;;;;;;;;;4990963;28;20038;-49
2023/02/27 07:50:25;;;;;;;9.18;8.57;;;;;;;;;;4995937;28;20030;-51
2023/02/27 07:52:52;;;;;;;9.05;8.45;;;;;;;;;;4994222;28;20045;-49
2023/02/27 07:55:17;;;;;;;9.57;8.93;;;;;;;;;;4993980;28;20060;-48
2023/02/27 07:57:43;;;;;;;9.90;9.30;;;;;;;;;;4992963;28;20456;-50
2023/02/27 08:00:10;;;;;;;9.20;8.60;;;;;;;;;;4993993;28;20491;-51
2023/02/27 08:02:35;;;;;;;8.98;8.38;;;;;;;;;;4994489;28;20065;-51
2023/02/27 08:05:00;;;;;;;9.50;8.90;;;;;;;;;;4994611;28;20111;-48
2023/02/27 08:07:26;;;;;;;9.80;9.20;;;;;;;;;;4985105;28;20062;-50
2023/02/27 08:09:51;;;;;;;9.65;9.05;;;;;;;;;;4995748;28;20037;-49
2023/02/27 08:12:16;;;;;;;9.35;8.75;;;;;;;;;;4993400;28;20034;-49
2023/02/27 08:14:42;;;;;;;8.65;8.07;;;;;;;;;;4993448;28;20042;-48
2023/02/27 08:17:07;;;;;;;9.52;8.93;;;;;;;;;;4990359;28;20046;-50
2023/02/27 08:19:33;;;;;;;9.95;9.25;;;;;;;;;;4994719;28;20030;-50
2023/02/27 08:21:58;;;;;;;9.20;8.60;;;;;;;;;;4991362;28;20056;-49
2023/02/27 08:24:23;;;;;;;9.70;9.10;;;;;;;;;;4992034;28;20129;-49
2023/02/27 08:26:49;;;;;;;8.98;8.38;;;;;;;;;;4994790;28;20038;-50
2023/02/27 08:29:14;;;;;;;9.30;8.50;;;;;;;;;;4994249;28;20042;-48
2023/02/27 08:31:40;;;;;;;10.00;9.30;;;;;;;;;;4992933;28;20053;-48
2023/02/27 08:34:05;;;;;;;9.57;8.93;;;;;;;;;;4993612;28;20044;-49
2023/02/27 08:36:31;;;;;;;9.52;8.93;;;;;;;;;;4992657;28;20462;-51
2023/02/27 08:38:56;;;;;;;10.15;9.35;;;;;;;;;;4994269;28;20038;-49
2023/02/27 08:41:21;;;;;;;9.55;8.85;;;;;;;;;;4988473;28;20041;-49
2023/02/27 08:43:47;;;;;;;9.25;8.65;;;;;;;;;;4993097;28;20038;-50
2023/02/27 08:46:13;;;;;;;8.57;7.97;;;;;;;;;;4992076;28;20034;-51
2023/02/27 08:48:38;;;;;;;9.55;8.95;;;;;;;;;;4993144;28;20030;-50
2023/02/27 08:51:04;;;;;;;8.85;8.25;;;;;;;;;;4992253;28;20030;-49
2023/02/27 08:53:29;;;;;;;8.77;8.20;;;;;;;;;;4993639;28;20099;-51
2023/02/27 08:55:54;;;;;;;9.25;8.65;;;;;;;;;;4994433;28;20038;-49
2023/02/27 08:58:20;;;;;;;11.00;9.15;;;;;;;;;;4992673;28;20038;-49
2023/02/27 09:00:45;;;;;;;9.20;8.60;;;;;;;;;;4990437;28;20067;-48
2023/02/27 09:03:11;;;;;;;8.82;8.27;;;;;;;;;;4993375;28;20038;-48
2023/02/27 09:05:37;;;;;;;9.13;8.52;;;;;;;;;;4992788;28;20041;-49
2023/02/27 09:08:03;;;;;;;8.90;8.30;;;;;;;;;;4998874;28;20030;-51
2023/02/27 09:10:31;;;;;;;8.40;7.90;;;;;;;;;;4992735;28;20682;-48
2023/02/27 09:12:57;;;;;;;9.65;9.05;;;;;;;;;;4993119;28;20121;-49
2023/02/27 09:15:23;;;;;;;8.95;8.30;;;;;;;;;;4994333;28;20629;-47
2023/02/27 09:17:48;;;;;;;8.98;8.38;;;;;;;;;;4994861;28;20041;-49
2023/02/27 09:20:14;;;;;;;9.85;9.25;;;;;;;;;;4995845;28;20082;-48
2023/02/27 09:22:40;;;;;;;8.80;8.20;;;;;;;;;;4989631;28;20034;-46
2023/02/27 09:25:06;;;;;;;9.35;8.75;;;;;;;;;;4995028;28;20034;-48
2023/02/27 09:27:32;;;;;;;9.93;9.32;;;;;;;;;;4991422;28;20038;-47
2023/02/27 09:29:58;;;;;;;9.10;8.50;;;;;;;;;;4992648;28;20038;-48
2023/02/27 09:32:24;;;;;;;9.18;8.57;;;;;;;;;;4991140;28;20034;-47
2023/02/27 09:34:50;;;;;;;9.48;8.88;;;;;;;;;;4991985;28;20100;-50
2023/02/27 09:37:18;;;;;;;9.98;9.38;;;;;;;;;;4988843;28;20558;-48
2023/02/27 09:39:44;;;;;;;9.55;8.95;;;;;;;;;;4994886;28;20030;-49
2023/02/27 09:42:22;;;;;;;11.07;10.38;;;;;;;;;;4988935;28;20483;-48
2023/02/27 09:44:51;;;;;;;13.13;12.32;;;;;;;;;;4993630;28;20506;-49
2023/02/27 09:47:43;;;;;;;11.10;10.40;;;;;;;;;;4990812;28;20041;-48
2023/02/27 09:50:27;;;;;;;10.65;10.05;;;;;;;;;;4991245;28;20310;-50
2023/02/27 09:52:53;;;;;;;12.02;11.23;;;;;;;;;;4991046;28;20508;-48
2023/02/27 09:55:20;;;;;;;12.52;11.73;;;;;;;;;;4989582;28;20077;-49
2023/02/27 09:57:57;;;;;;;11.85;11.15;;;;;;;;;;4991112;28;20345;-47
2023/02/27 10:00:38;;;;;;;11.85;11.15;;;;;;;;;;4990399;28;20700;-47
2023/02/27 10:03:36;;;;;;;11.63;10.93;;;;;;;;;;4996919;28;20038;-50
2023/02/27 10:06:24;;;;;;;12.18;11.48;;;;;;;;;;4996064;28;20043;-49
2023/02/27 10:09:19;;;;;;;11.65;10.95;;;;;;;;;;4995699;28;20097;-50
2023/02/27 10:11:50;;;;;;;11.65;10.95;;;;;;;;;;4997664;28;20037;-49
2023/02/27 10:14:24;;;;;;;12.13;11.43;;;;;;;;;;4994649;28;20064;-48
2023/02/27 10:16:51;;;;;;;12.63;11.93;;;;;;;;;;4993493;28;20041;-50
2023/02/27 10:19:26;;;;;;;11.60;10.90;;;;;;;;;;4992933;28;20512;-50
2023/02/27 10:21:53;;;;;;;10.85;10.20;;;;;;;;;;4995942;28;20070;-51
2023/02/27 10:24:20;;;;;;;11.95;11.25;;;;;;;;;;4995562;28;20056;-48
2023/02/27 10:26:46;;;;;;;10.73;10.02;;;;;;;;;;4993225;28;20034;-50
2023/02/27 10:29:22;;;;;;;12.23;11.45;;;;;;;;;;4998224;28;20042;-52
2023/02/27 10:31:54;;;;;;;12.25;11.35;;;;;;;;;;4994987;28;20038;-48
2023/02/27 10:34:21;;;;;;;11.55;10.85;;;;;;;;;;4995083;28;20034;-52
2023/02/27 10:36:47;;;;;;;12.38;11.57;;;;;;;;;;4998373;28;20108;-47
2023/02/27 10:39:15;;;;;;;11.75;11.05;;;;;;;;;;4994157;28;20097;-50
2023/02/27 10:41:43;;;;;;;12.57;11.88;;;;;;;;;;4993877;28;20518;-50
2023/02/27 10:44:13;;;;;;;12.10;11.40;;;;;;;;;;4992294;28;20480;-50
2023/02/27 10:46:39;;;;;;;12.20;11.50;;;;;;;;;;4994563;28;20109;-51
2023/02/27 10:49:19;;;;;;;12.13;11.43;;;;;;;;;;4996203;28;20041;-50
2023/02/27 10:52:02;;;;;;;11.70;11.00;;;;;;;;;;4992998;28;20023;-52
2023/02/27 10:54:27;;;;;;;12.25;11.50;;;;;;;;;;4995143;28;20101;-49
2023/02/27 10:56:55;;;;;;;11.38;10.68;;;;;;;;;;4991442;28;20030;-49
2023/02/27 10:59:39;;;;;;;12.45;11.75;;;;;;;;;;4997689;28;20430;-50
2023/02/27 11:02:16;;;;;;;12.38;11.68;;;;;;;;;;4997423;28;20480;-51
2023/02/27 11:04:52;;;;;;;12.23;11.52;;;;;;;;;;4996660;28;20365;-51
2023/02/27 11:07:35;;;;;;;12.90;11.88;;;;;;;;;;4994785;28;20030;-48
2023/02/27 11:10:27;;;;;;;12.82;12.10;;;;;;;;;;4994227;28;20037;-48
2023/02/27 11:13:04;;;;;;;12.27;11.57;;;;;;;;;;4995489;28;20038;-49
2023/02/27 11:15:33;;;;;;;13.27;12.50;;;;;;;;;;4992594;28;20038;-49
2023/02/27 11:18:27;;;;;;;12.63;11.93;;;;;;;;;;4994690;28;20038;-47
2023/02/27 11:20:53;;;;;;;11.30;10.60;;;;;;;;;;4991883;28;20387;-50
2023/02/27 11:23:22;;;;;;;13.10;12.30;;;;;;;;;;4991986;28;20124;-51
2023/02/27 11:25:48;;;;;;;11.88;11.18;;;;;;;;;;4994173;28;20487;-48
2023/02/27 11:28:20;;;;;;;11.88;11.18;;;;;;;;;;4994567;28;20046;-48
2023/02/27 11:30:56;;;;;;;11.25;10.55;;;;;;;;;;4995424;28;20090;-51
2023/02/27 11:33:23;;;;;;;11.63;10.93;;;;;;;;;;4996523;28;20034;-52
2023/02/27 11:35:51;;;;;;;13.07;12.27;;;;;;;;;;4992225;28;20172;-53
2023/02/27 11:38:23;;;;;;;13.07;12.30;;;;;;;;;;4990707;28;20029;-52
2023/02/27 11:40:53;;;;;;;11.40;10.70;;;;;;;;;;4994722;28;20128;-52
2023/02/27 11:43:20;;;;;;;11.10;10.40;;;;;;;;;;4990894;28;20049;-50
2023/02/27 11:45:56;;;;;;;10.85;10.20;;;;;;;;;;4993929;28;20030;-49
2023/02/27 11:48:23;;;;;;;11.32;10.63;;;;;;;;;;4992953;28;20099;-48
2023/02/27 11:51:00;;;;;;;11.20;10.50;;;;;;;;;;4994700;28;20068;-49
2023/02/27 11:53:46;;;;;;;10.90;10.23;;;;;;;;;;4990609;28;20026;-48
2023/02/27 11:56:20;;;;;;;10.95;10.30;;;;;;;;;;4994428;28;20804;-49
2023/02/27 11:58:56;;;;;;;11.10;10.40;;;;;;;;;;4990736;28;20096;-48
2023/02/27 12:01:51;;;;;;;11.55;10.85;;;;;;;;;;4993299;28;20045;-49
2023/02/27 12:04:23;;;;;;;12.25;11.55;;;;;;;;;;5006501;28;20135;-50
2023/02/27 12:06:52;;;;;;;11.65;10.95;;;;;;;;;;4993793;28;20052;-51
2023/02/27 12:09:41;;;;;;;10.82;10.13;;;;;;;;;;4995592;28;20279;-49
2023/02/27 12:12:22;;;;;;;11.18;10.48;;;;;;;;;;4991380;28;20823;-47
2023/02/27 12:15:18;;;;;;;11.77;11.07;;;;;;;;;;4994116;28;20030;-49
2023/02/27 12:18:17;;;;;;;12.70;11.98;;;;;;;;;;4992640;28;20038;-52
2023/02/27 12:21:06;;;;;;;10.60;10.00;;;;;;;;;;4992563;28;20034;-50
2023/02/27 12:23:31;;;;;;;12.38;11.68;;;;;;;;;;4988853;28;20049;-51
2023/02/27 12:26:10;;;;;;;11.48;10.52;;;;;;;;;;4990863;28;20050;-47
2023/02/27 12:28:53;;;;;;;10.60;10.00;;;;;;;;;;4992459;28;20035;-48
2023/02/27 12:31:33;;;;;;;12.35;11.65;;;;;;;;;;4992502;28;20038;-48
2023/02/27 12:34:07;;;;;;;12.50;11.80;;;;;;;;;;4998474;28;20042;-49
2023/02/27 12:36:33;;;;;;;11.95;11.25;;;;;;;;;;4991541;28;20054;-48
2023/02/27 12:38:58;;;;;;;11.80;11.10;;;;;;;;;;4991980;28;20042;-49
2023/02/27 12:41:43;;;;;;;12.68;11.98;;;;;;;;;;4991058;28;20181;-50
2023/02/27 12:44:25;;;;;;;12.07;11.38;;;;;;;;;;4993852;28;20050;-49
2023/02/27 12:47:10;;;;;;;12.00;11.30;;;;;;;;;;5007279;28;20429;-48
2023/02/27 12:49:50;;;;;;;11.85;11.15;;;;;;;;;;4992273;28;20042;-49
2023/02/27 12:52:36;;;;;;;11.88;11.18;;;;;;;;;;4992670;28;20884;-49
2023/02/27 12:55:12;;;;;;;12.02;11.32;;;;;;;;;;4991866;28;20034;-49
2023/02/27 12:57:52;;;;;;;12.60;11.90;;;;;;;;;;4991058;28;20139;-51
2023/02/27 13:00:21;;;;;;;13.52;12.73;;;;;;;;;;4990216;28;20095;-48
2023/02/27 13:02:53;;;;;;;13.07;12.32;;;;;;;;;;4993664;28;20049;-51
2023/02/27 13:05:41;;;;;;;13.25;12.45;;;;;;;;;;4993362;28;20038;-51
2023/02/27 13:08:24;;;;;;;13.10;12.32;;;;;;;;;;4992905;28;20038;-47
2023/02/27 13:10:57;;;;;;;13.52;12.73;;;;;;;;;;4993793;28;20483;-47
2023/02/27 13:13:33;;;;;;;12.57;11.88;;;;;;;;;;4993046;28;20100;-50
2023/02/27 13:16:09;;;;;;;13.10;12.32;;;;;;;;;;4989410;28;20046;-49
2023/02/27 13:18:46;;;;;;;12.70;12.00;;;;;;;;;;4991439;28;20642;-50
2023/02/27 13:21:26;;;;;;;13.18;12.38;;;;;;;;;;4991245;28;20068;-51
2023/02/27 13:24:08;;;;;;;11.87;11.17;;;;;;;;;;4992687;28;20062;-52
2023/02/27 13:26:38;;;;;;;12.75;12.00;;;;;;;;;;4986967;28;20524;-50
2023/02/27 13:29:04;;;;;;;13.27;12.48;;;;;;;;;;4991232;28;20043;-51
2023/02/27 13:31:37;;;;;;;12.77;12.02;;;;;;;;;;4988360;28;20061;-50
2023/02/27 13:34:15;;;;;;;11.88;11.18;;;;;;;;;;4992396;28;20383;-50
2023/02/27 13:36:45;;;;;;;11.77;11.07;;;;;;;;;;4991263;28;20026;-48
2023/02/27 13:39:35;;;;;;;11.93;11.23;;;;;;;;;;4997888;28;20113;-51
2023/02/27 13:42:00;;;;;;;12.25;11.45;;;;;;;;;;4995659;28;20038;-48
2023/02/27 13:44:35;;;;;;;12.40;11.70;;;;;;;;;;4996110;28;20034;-47
2023/02/27 13:47:28;;;;;;;12.05;11.35;;;;;;;;;;4997601;28;20156;-48
2023/02/27 13:49:55;;;;;;;13.07;12.23;;;;;;;;;;4994014;28;20092;-51
2023/02/27 13:52:28;;;;;;;13.38;12.57;;;;;;;;;;4994569;28;20289;-49
2023/02/27 13:54:54;;;;;;;13.38;12.57;;;;;;;;;;4995081;28;20121;-48
2023/02/27 13:57:23;;;;;;;14.57;13.77;;;;;;;;;;4995215;28;20109;-52
2023/02/27 14:00:00;;;;;;;13.52;12.73;;;;;;;;;;4996655;28;20161;-48
2023/02/27 14:02:43;;;;;;;13.32;12.52;;;;;;;;;;4994988;28;20111;-50
2023/02/27 14:05:14;;;;;;;13.30;12.50;;;;;;;;;;4999021;28;20034;-51
2023/02/27 14:07:59;;;;;;;13.20;12.40;;;;;;;;;;4994960;28;20065;-51
2023/02/27 14:10:29;;;;;;;12.07;11.38;;;;;;;;;;4995960;28;20476;-48
2023/02/27 14:12:56;;;;;;;13.48;12.68;;;;;;;;;;4995918;28;20053;-48
2023/02/27 14:15:21;;;;;;;12.90;12.20;;;;;;;;;;4995512;28;20041;-48
2023/02/27 14:18:30;;;;;;;12.70;11.90;;;;;;;;;;4995316;28;20034;-52
2023/02/27 14:20:55;;;;;;;11.95;11.25;;;;;;;;;;4994385;28;20472;-50
2023/02/27 14:23:25;;;;;;;13.13;12.32;;;;;;;;;;4995566;28;20038;-48
2023/02/27 14:25:52;;;;;;;12.43;11.73;;;;;;;;;;4996283;28;20034;-48
2023/02/27 14:28:40;;;;;;;13.55;12.75;;;;;;;;;;4996778;28;20054;-51
2023/02/27 14:31:12;;;;;;;13.75;12.95;;;;;;;;;;4989910;28;20361;-49
2023/02/27 14:33:45;;;;;;;12.30;11.60;;;;;;;;;;4996578;28;20400;-50
2023/02/27 14:36:18;;;;;;;12.80;12.05;;;;;;;;;;4996518;28;20038;-50
2023/02/27 14:38:43;;;;;;;12.00;11.30;;;;;;;;;;4996963;28;20037;-49
2023/02/27 14:41:14;;;;;;;12.20;11.50;;;;;;;;;;4994428;28;20030;-49
2023/02/27 14:43:43;;;;;;;12.23;11.52;;;;;;;;;;4995947;28;20053;-48
2023/02/27 14:46:29;;;;;;;14.27;13.48;;;;;;;;;;4992477;28;20038;-49
2023/02/27 14:48:57;;;;;;;20.25;18.30;;;;;;;;;;4994995;28;20640;-52
2023/02/27 14:51:23;;;;;;;14.52;13.60;;;;;;;;;;4992424;28;20111;-49
2023/02/27 14:54:13;;;;;;;14.93;14.02;;;;;;;;;;4994889;28;20030;-51
2023/02/27 14:56:39;;;;;;;12.38;11.68;;;;;;;;;;4993693;28;20655;-51
2023/02/27 14:59:26;;;;;;;12.75;12.05;;;;;;;;;;4996550;28;20040;-48
2023/02/27 15:01:54;;;;;;;13.90;13.00;;;;;;;;;;4997302;28;20583;-49
2023/02/27 15:04:22;;;;;;;12.75;12.05;;;;;;;;;;4996368;28;20038;-48